EYVI/VNO METAR and TAF weather

Enter ICAO airport designator
Station Type Date Time Source
EYVI METAR 2020/11/28 20:20 UTC NOAA

EYVI 282020Z 07007KT 9999 -SN OVC007 M00/M01 Q1020 R01/2///95 TEMPO 1500 SN BR


Station Type Date Time Source
EYVI Decoded METAR 2020/11/28 20:20 UTC NOAA

Vilnius, Lithuania (EYVI) 54-38N 025-06E 156M
Nov 28, 2020 - 03:20 PM EST / 2020.11.28 2020 UTC
Wind: from the ENE (070 degrees) at 8 MPH (7 KT):0
Visibility: greater than 7 mile(s):0
Sky conditions: overcast
Weather: light snow
Temperature: 32 F (0 C)
Windchill: 24 F (-4 C):1
Dew Point: 30 F (-1 C)
Relative Humidity: 92%
Pressure (altimeter): 30.12 in. Hg (1020 hPa)
ob: EYVI 282020Z 07007KT 9999 -SN OVC007 M00/M01 Q1020 R01/2///95 TEMPO 1500 SN BR
cycle: 20

Station Type Date Time Source
EYVI TAF 2020/11/28 18:36 UTC NOAA

TAF TAF EYVI 281732Z 2818/2918 06008KT 5000 BR OVC010
TEMPO 2818/2820 SNRA OVC005
TEMPO 2820/2904 3000 SN OVC005 PROB40
TEMPO 2820/2904 -FZDZ
BECMG 2906/2907 OVC015
BECMG 2914/2915 3000 SN OVC005

Example: see airport list